sensor_id;sensor_type;location;lat;lon;timestamp;pressure;altitude;pressure_sealevel;temperature;humidity
26489;BME280;14169;43.684;10.484;2022-11-15T00:00:17;102096.66;;;11.03;100.00
26489;BME280;14169;43.684;10.484;2022-11-15T00:02:43;102099.22;;;11.04;100.00
26489;BME280;14169;43.684;10.484;2022-11-15T00:05:08;102103.56;;;11.05;100.00
26489;BME280;14169;43.684;10.484;2022-11-15T00:07:33;102115.72;;;11.06;100.00
26489;BME280;14169;43.684;10.484;2022-11-15T00:09:59;102111.34;;;11.08;100.00
26489;BME280;14169;43.684;10.484;2022-11-15T00:12:27;102115.72;;;11.06;100.00
26489;BME280;14169;43.684;10.484;2022-11-15T00:14:53;102108.81;;;11.04;100.00
26489;BME280;14169;43.684;10.484;2022-11-15T00:17:18;102107.91;;;11.05;100.00
26489;BME280;14169;43.684;10.484;2022-11-15T00:19:43;102118.34;;;11.05;100.00
26489;BME280;14169;43.684;10.484;2022-11-15T00:22:09;102110.47;;;11.09;100.00
26489;BME280;14169;43.684;10.484;2022-11-15T00:24:34;102110.47;;;11.09;100.00
26489;BME280;14169;43.684;10.484;2022-11-15T00:27:00;102107.94;;;11.03;100.00
26489;BME280;14169;43.684;10.484;2022-11-15T00:29:25;102108.88;;;10.96;100.00
26489;BME280;14169;43.684;10.484;2022-11-15T00:31:50;102104.59;;;10.90;100.00
26489;BME280;14169;43.684;10.484;2022-11-15T00:34:16;102110.75;;;10.85;100.00
26489;BME280;14169;43.684;10.484;2022-11-15T00:36:41;102111.66;;;10.82;100.00
26489;BME280;14169;43.684;10.484;2022-11-15T00:39:06;102106.53;;;10.75;100.00
26489;BME280;14169;43.684;10.484;2022-11-15T00:41:32;102102.19;;;10.72;100.00
26489;BME280;14169;43.684;10.484;2022-11-15T00:43:57;102103.13;;;10.68;100.00
26489;BME280;14169;43.684;10.484;2022-11-15T00:46:23;102102.31;;;10.62;100.00
26489;BME280;14169;43.684;10.484;2022-11-15T00:48:48;102098.88;;;10.54;100.00
26489;BME280;14169;43.684;10.484;2022-11-15T00:51:13;102100.66;;;10.50;100.00
26489;BME280;14169;43.684;10.484;2022-11-15T00:53:39;102109.38;;;10.48;100.00
26489;BME280;14169;43.684;10.484;2022-11-15T00:56:04;102118.09;;;10.45;100.00
26489;BME280;14169;43.684;10.484;2022-11-15T00:58:30;102117.22;;;10.45;100.00
26489;BME280;14169;43.684;10.484;2022-11-15T01:00:55;102120.72;;;10.42;100.00
26489;BME280;14169;43.684;10.484;2022-11-15T01:03:20;102118.16;;;10.39;100.00
26489;BME280;14169;43.684;10.484;2022-11-15T01:05:46;102104.25;;;10.39;100.00
26489;BME280;14169;43.684;10.484;2022-11-15T01:08:15;102117.28;;;10.39;100.00
26489;BME280;14169;43.684;10.484;2022-11-15T01:10:42;102112.94;;;10.36;100.00
26489;BME280;14169;43.684;10.484;2022-11-15T01:13:08;102101.69;;;10.36;100.00
26489;BME280;14169;43.684;10.484;2022-11-15T01:15:38;102104.31;;;10.33;100.00
26489;BME280;14169;43.684;10.484;2022-11-15T01:18:03;102120.81;;;10.32;100.00
26489;BME280;14169;43.684;10.484;2022-11-15T01:20:29;102108.59;;;10.37;100.00
26489;BME280;14169;43.684;10.484;2022-11-15T01:22:54;102117.28;;;10.39;100.00
26489;BME280;14169;43.684;10.484;2022-11-15T01:25:19;102113.88;;;10.34;100.00
26489;BME280;14169;43.684;10.484;2022-11-15T01:27:45;102106.06;;;10.31;100.00
26489;BME280;14169;43.684;10.484;2022-11-15T01:30:10;102094.84;;;10.23;100.00
26489;BME280;14169;43.684;10.484;2022-11-15T01:32:36;102094.81;;;10.24;100.00
26489;BME280;14169;43.684;10.484;2022-11-15T01:35:01;102089.56;;;10.32;100.00
26489;BME280;14169;43.684;10.484;2022-11-15T01:37:27;102091.22;;;10.39;100.00
26489;BME280;14169;43.684;10.484;2022-11-15T01:39:52;102089.50;;;10.39;100.00
26489;BME280;14169;43.684;10.484;2022-11-15T01:42:18;102086.06;;;10.34;100.00
26489;BME280;14169;43.684;10.484;2022-11-15T01:44:47;102085.25;;;10.26;100.00
26489;BME280;14169;43.684;10.484;2022-11-15T01:49:40;102080.16;;;10.14;100.00
26489;BME280;14169;43.684;10.484;2022-11-15T01:52:12;102070.63;;;10.13;100.00
26489;BME280;14169;43.684;10.484;2022-11-15T01:54:39;102071.47;;;10.15;100.00
26489;BME280;14169;43.684;10.484;2022-11-15T01:57:08;102067.09;;;10.20;100.00
26489;BME280;14169;43.684;10.484;2022-11-15T01:59:36;102066.19;;;10.26;100.00
26489;BME280;14169;43.684;10.484;2022-11-15T02:02:03;102057.47;;;10.30;100.00
26489;BME280;14169;43.684;10.484;2022-11-15T02:04:31;102053.09;;;10.30;100.00
26489;BME280;14169;43.684;10.484;2022-11-15T02:06:58;102047.97;;;10.26;100.00
26489;BME280;14169;43.684;10.484;2022-11-15T02:09:25;102034.09;;;10.24;100.00
26489;BME280;14169;43.684;10.484;2022-11-15T02:11:51;102033.22;;;10.23;100.00
26489;BME280;14169;43.684;10.484;2022-11-15T02:14:18;102027.13;;;10.23;100.00
26489;BME280;14169;43.684;10.484;2022-11-15T02:16:58;102029.75;;;10.23;100.00
26489;BME280;14169;43.684;10.484;2022-11-15T02:27:49;101998.16;;;10.53;100.00
26489;BME280;14169;43.684;10.484;2022-11-15T02:31:02;101998.06;;;10.62;100.00
26489;BME280;14169;43.684;10.484;2022-11-15T02:38:59;101991.56;;;10.96;100.00
26489;BME280;14169;43.684;10.484;2022-11-15T02:44:04;101987.81;;;11.14;100.00
26489;BME280;14169;43.684;10.484;2022-11-15T02:46:40;101987.72;;;11.23;100.00
26489;BME280;14169;43.684;10.484;2022-11-15T02:49:28;101976.25;;;11.33;100.00
26489;BME280;14169;43.684;10.484;2022-11-15T02:51:55;101983.09;;;11.41;100.00
26489;BME280;14169;43.684;10.484;2022-11-15T02:54:28;101979.50;;;11.47;100.00
26489;BME280;14169;43.684;10.484;2022-11-15T02:56:57;101977.91;;;11.38;100.00
26489;BME280;14169;43.684;10.484;2022-11-15T03:02:02;101973.69;;;11.31;100.00
26489;BME280;14169;43.684;10.484;2022-11-15T03:07:12;101971.69;;;11.47;100.00
26489;BME280;14169;43.684;10.484;2022-11-15T03:12:12;101982.72;;;11.65;100.00
26489;BME280;14169;43.684;10.484;2022-11-15T03:17:28;101986.09;;;11.70;100.00
26489;BME280;14169;43.684;10.484;2022-11-15T03:19:57;101990.44;;;11.70;100.00
26489;BME280;14169;43.684;10.484;2022-11-15T03:22:26;101986.19;;;11.64;100.00
26489;BME280;14169;43.684;10.484;2022-11-15T03:24:59;101976.75;;;11.56;100.00
26489;BME280;14169;43.684;10.484;2022-11-15T03:27:30;101980.38;;;11.46;100.00
26489;BME280;14169;43.684;10.484;2022-11-15T03:30:00;101985.75;;;11.37;100.00
26489;BME280;14169;43.684;10.484;2022-11-15T03:32:31;101991.13;;;11.26;100.00
26489;BME280;14169;43.684;10.484;2022-11-15T03:35:08;101979.16;;;11.13;100.00
26489;BME280;14169;43.684;10.484;2022-11-15T03:40:07;101964.63;;;10.94;100.00
26489;BME280;14169;43.684;10.484;2022-11-15T03:45:23;101975.31;;;10.77;100.00
26489;BME280;14169;43.684;10.484;2022-11-15T03:48:14;101973.53;;;10.78;100.00
26489;BME280;14169;43.684;10.484;2022-11-15T03:50:42;101976.13;;;10.81;100.00
26489;BME280;14169;43.684;10.484;2022-11-15T03:53:09;101952.63;;;10.85;100.00
26489;BME280;14169;43.684;10.484;2022-11-15T03:55:35;101942.94;;;10.93;100.00
26489;BME280;14169;43.684;10.484;2022-11-15T03:58:01;101940.22;;;11.01;100.00
26489;BME280;14169;43.684;10.484;2022-11-15T04:00:27;101935.66;;;11.14;100.00
26489;BME280;14169;43.684;10.484;2022-11-15T04:02:52;101930.19;;;11.30;100.00
26489;BME280;14169;43.684;10.484;2022-11-15T04:05:18;101926.50;;;11.45;100.00
26489;BME280;14169;43.684;10.484;2022-11-15T04:07:43;101928.00;;;11.58;100.00
26489;BME280;14169;43.684;10.484;2022-11-15T04:10:10;101914.00;;;11.63;100.00
26489;BME280;14169;43.684;10.484;2022-11-15T04:12:41;101911.41;;;11.63;100.00
26489;BME280;14169;43.684;10.484;2022-11-15T04:15:13;101913.97;;;11.65;100.00
26489;BME280;14169;43.684;10.484;2022-11-15T04:17:41;101923.50;;;11.67;100.00
26489;BME280;14169;43.684;10.484;2022-11-15T04:20:30;101928.69;;;11.69;100.00
26489;BME280;14169;43.684;10.484;2022-11-15T04:23:18;101926.03;;;11.70;100.00
26489;BME280;14169;43.684;10.484;2022-11-15T04:26:05;101930.41;;;11.71;100.00
26489;BME280;14169;43.684;10.484;2022-11-15T04:28:31;101942.53;;;11.72;100.00
26489;BME280;14169;43.684;10.484;2022-11-15T04:30:56;101942.63;;;11.69;100.00
26489;BME280;14169;43.684;10.484;2022-11-15T04:33:22;101939.16;;;11.67;100.00
26489;BME280;14169;43.684;10.484;2022-11-15T04:35:47;101929.63;;;11.65;100.00
26489;BME280;14169;43.684;10.484;2022-11-15T04:38:34;101940.09;;;11.62;100.00
26489;BME280;14169;43.684;10.484;2022-11-15T04:41:00;101948.00;;;11.59;100.00
26489;BME280;14169;43.684;10.484;2022-11-15T04:43:25;101945.44;;;11.56;100.00
26489;BME280;14169;43.684;10.484;2022-11-15T04:45:51;101939.38;;;11.54;100.00
26489;BME280;14169;43.684;10.484;2022-11-15T04:48:16;101938.50;;;11.55;100.00
26489;BME280;14169;43.684;10.484;2022-11-15T04:50:42;101938.50;;;11.55;100.00
26489;BME280;14169;43.684;10.484;2022-11-15T04:53:07;101943.66;;;11.58;100.00
26489;BME280;14169;43.684;10.484;2022-11-15T04:55:32;101945.41;;;11.59;100.00
26489;BME280;14169;43.684;10.484;2022-11-15T04:57:59;101932.38;;;11.57;100.00
26489;BME280;14169;43.684;10.484;2022-11-15T05:00:26;101933.38;;;11.49;100.00
26489;BME280;14169;43.684;10.484;2022-11-15T05:02:52;101922.97;;;11.46;100.00
26489;BME280;14169;43.684;10.484;2022-11-15T05:05:36;101929.97;;;11.44;100.00
26489;BME280;14169;43.684;10.484;2022-11-15T05:08:02;101932.59;;;11.44;100.00
26489;BME280;14169;43.684;10.484;2022-11-15T05:10:27;101927.31;;;11.47;100.00
26489;BME280;14169;43.684;10.484;2022-11-15T05:12:52;101928.09;;;11.52;100.00
26489;BME280;14169;43.684;10.484;2022-11-15T05:15:18;101925.38;;;11.59;100.00
26489;BME280;14169;43.684;10.484;2022-11-15T05:17:43;101922.66;;;11.65;100.00
26489;BME280;14169;43.684;10.484;2022-11-15T05:20:09;101917.34;;;11.71;100.00
26489;BME280;14169;43.684;10.484;2022-11-15T05:22:35;101908.50;;;11.78;100.00
26489;BME280;14169;43.684;10.484;2022-11-15T05:25:00;101897.94;;;11.85;100.00
26489;BME280;14169;43.684;10.484;2022-11-15T05:27:26;101897.81;;;11.91;100.00
26489;BME280;14169;43.684;10.484;2022-11-15T05:29:51;101896.88;;;11.96;100.00
26489;BME280;14169;43.684;10.484;2022-11-15T05:32:17;101908.13;;;12.01;100.00
26489;BME280;14169;43.684;10.484;2022-11-15T05:34:43;101904.53;;;12.07;100.00
26489;BME280;14169;43.684;10.484;2022-11-15T05:37:08;101883.53;;;12.10;100.00
26489;BME280;14169;43.684;10.484;2022-11-15T05:39:34;101896.47;;;12.16;100.00
26489;BME280;14169;43.684;10.484;2022-11-15T05:42:12;101888.66;;;12.17;100.00
26489;BME280;14169;43.684;10.484;2022-11-15T05:44:41;101885.06;;;12.21;100.00
26489;BME280;14169;43.684;10.484;2022-11-15T05:47:10;101884.16;;;12.22;100.00
26489;BME280;14169;43.684;10.484;2022-11-15T05:49:40;101880.69;;;12.22;100.00
26489;BME280;14169;43.684;10.484;2022-11-15T05:52:09;101882.47;;;12.20;100.00
26489;BME280;14169;43.684;10.484;2022-11-15T05:54:36;101883.34;;;12.20;100.00
26489;BME280;14169;43.684;10.484;2022-11-15T05:57:02;101884.22;;;12.21;100.00
26489;BME280;14169;43.684;10.484;2022-11-15T05:59:30;101888.41;;;12.28;100.00
26489;BME280;14169;43.684;10.484;2022-11-15T06:01:56;101891.84;;;12.30;100.00
26489;BME280;14169;43.684;10.484;2022-11-15T06:04:22;101894.41;;;12.33;100.00
26489;BME280;14169;43.684;10.484;2022-11-15T06:06:47;101901.34;;;12.35;100.00
26489;BME280;14169;43.684;10.484;2022-11-15T06:09:12;101893.38;;;12.40;100.00
26489;BME280;14169;43.684;10.484;2022-11-15T06:11:38;101898.47;;;12.46;100.00
26489;BME280;14169;43.684;10.484;2022-11-15T06:14:03;101896.63;;;12.51;100.00
26489;BME280;14169;43.684;10.484;2022-11-15T06:16:29;101886.09;;;12.54;100.00
26489;BME280;14169;43.684;10.484;2022-11-15T06:18:54;101890.47;;;12.55;100.00
26489;BME280;14169;43.684;10.484;2022-11-15T06:21:20;101886.09;;;12.54;100.00
26489;BME280;14169;43.684;10.484;2022-11-15T06:23:45;101881.75;;;12.54;100.00
26489;BME280;14169;43.684;10.484;2022-11-15T06:26:10;101883.50;;;12.54;100.00
26489;BME280;14169;43.684;10.484;2022-11-15T06:28:36;101881.69;;;12.56;100.00
26489;BME280;14169;43.684;10.484;2022-11-15T06:31:06;101891.28;;;12.57;100.00
26489;BME280;14169;43.684;10.484;2022-11-15T06:33:32;101885.22;;;12.55;100.00
26489;BME280;14169;43.684;10.484;2022-11-15T06:36:05;101896.53;;;12.55;100.00
26489;BME280;14169;43.684;10.484;2022-11-15T06:38:31;101899.13;;;12.57;100.00
26489;BME280;14169;43.684;10.484;2022-11-15T06:41:08;101895.59;;;12.58;100.00
26489;BME280;14169;43.684;10.484;2022-11-15T06:43:35;101895.56;;;12.59;100.00
26489;BME280;14169;43.684;10.484;2022-11-15T06:46:02;101893.84;;;12.58;100.00
26489;BME280;14169;43.684;10.484;2022-11-15T06:48:28;101890.38;;;12.58;100.00
26489;BME280;14169;43.684;10.484;2022-11-15T06:50:55;101896.47;;;12.58;100.00
26489;BME280;14169;43.684;10.484;2022-11-15T06:53:22;101899.03;;;12.60;100.00
26489;BME280;14169;43.684;10.484;2022-11-15T06:55:47;101901.63;;;12.61;100.00
26489;BME280;14169;43.684;10.484;2022-11-15T06:58:13;101899.88;;;12.62;100.00
26489;BME280;14169;43.684;10.484;2022-11-15T07:00:38;101895.56;;;12.61;100.00
26489;BME280;14169;43.684;10.484;2022-11-15T07:03:04;101895.47;;;12.64;100.00
26489;BME280;14169;43.684;10.484;2022-11-15T07:05:29;101907.59;;;12.68;100.00
26489;BME280;14169;43.684;10.484;2022-11-15T07:07:56;101897.91;;;12.72;100.00
26489;BME280;14169;43.684;10.484;2022-11-15T07:10:22;101903.09;;;12.75;100.00
26489;BME280;14169;43.684;10.484;2022-11-15T07:12:53;101898.63;;;12.78;100.00
26489;BME280;14169;43.684;10.484;2022-11-15T07:15:22;101906.34;;;12.84;100.00
26489;BME280;14169;43.684;10.484;2022-11-15T07:17:48;101907.19;;;12.86;100.00
26489;BME280;14169;43.684;10.484;2022-11-15T07:20:14;101893.22;;;12.86;100.00
26489;BME280;14169;43.684;10.484;2022-11-15T07:22:40;101897.72;;;12.81;100.00
26489;BME280;14169;43.684;10.484;2022-11-15T07:25:06;101896.03;;;12.78;100.00
26489;BME280;14169;43.684;10.484;2022-11-15T07:27:32;101881.25;;;12.77;100.00
26489;BME280;14169;43.684;10.484;2022-11-15T07:29:57;101888.28;;;12.75;100.00
26489;BME280;14169;43.684;10.484;2022-11-15T07:32:23;101886.53;;;12.74;100.00
26489;BME280;14169;43.684;10.484;2022-11-15T07:34:48;101885.66;;;12.74;100.00
26489;BME280;14169;43.684;10.484;2022-11-15T07:37:13;101882.16;;;12.75;100.00
26489;BME280;14169;43.684;10.484;2022-11-15T07:39:39;101884.75;;;12.76;100.00
26489;BME280;14169;43.684;10.484;2022-11-15T07:42:04;101877.69;;;12.80;100.00
26489;BME280;14169;43.684;10.484;2022-11-15T07:44:48;101873.22;;;12.85;100.00
26489;BME280;14169;43.684;10.484;2022-11-15T07:47:14;101879.22;;;12.88;100.00
26489;BME280;14169;43.684;10.484;2022-11-15T07:49:39;101872.22;;;12.90;100.00
26489;BME280;14169;43.684;10.484;2022-11-15T07:52:05;101873.91;;;12.93;100.00
26489;BME280;14169;43.684;10.484;2022-11-15T07:54:30;101865.09;;;12.97;100.00
26489;BME280;14169;43.684;10.484;2022-11-15T07:56:55;101861.56;;;12.99;100.00
26489;BME280;14169;43.684;10.484;2022-11-15T07:59:21;101868.44;;;13.02;100.00
26489;BME280;14169;43.684;10.484;2022-11-15T08:01:46;101869.25;;;13.04;100.00
26489;BME280;14169;43.684;10.484;2022-11-15T08:04:12;101868.25;;;13.09;100.00
26489;BME280;14169;43.684;10.484;2022-11-15T08:06:37;101870.75;;;13.14;100.00
26489;BME280;14169;43.684;10.484;2022-11-15T08:09:03;101866.34;;;13.16;100.00
26489;BME280;14169;43.684;10.484;2022-11-15T08:11:29;101865.56;;;13.12;100.00
26489;BME280;14169;43.684;10.484;2022-11-15T08:13:54;101863.88;;;13.10;100.00
26489;BME280;14169;43.684;10.484;2022-11-15T08:16:19;101865.81;;;13.03;100.00
26489;BME280;14169;43.684;10.484;2022-11-15T08:18:45;101862.53;;;12.95;100.00
26489;BME280;14169;43.684;10.484;2022-11-15T08:21:13;101862.66;;;12.88;100.00
26489;BME280;14169;43.684;10.484;2022-11-15T08:23:39;101865.44;;;12.82;100.00
26489;BME280;14169;43.684;10.484;2022-11-15T08:26:05;101866.47;;;12.75;100.00
26489;BME280;14169;43.684;10.484;2022-11-15T08:28:31;101868.31;;;12.71;100.00
26489;BME280;14169;43.684;10.484;2022-11-15T08:30:57;101860.53;;;12.68;100.00
26489;BME280;14169;43.684;10.484;2022-11-15T08:33:23;101860.66;;;12.62;100.00
26489;BME280;14169;43.684;10.484;2022-11-15T08:35:49;101856.34;;;12.59;100.00
26489;BME280;14169;43.684;10.484;2022-11-15T08:38:15;101862.53;;;12.57;100.00
26489;BME280;14169;43.684;10.484;2022-11-15T08:40:40;101850.38;;;12.54;100.00
26489;BME280;14169;43.684;10.484;2022-11-15T08:43:06;101857.34;;;12.54;100.00
26489;BME280;14169;43.684;10.484;2022-11-15T08:45:33;101855.59;;;12.54;100.00
26489;BME280;14169;43.684;10.484;2022-11-15T08:48:01;101836.53;;;12.51;100.00
26489;BME280;14169;43.684;10.484;2022-11-15T08:50:27;101840.94;;;12.49;100.00
26489;BME280;14169;43.684;10.484;2022-11-15T08:52:52;101837.50;;;12.47;100.00
26489;BME280;14169;43.684;10.484;2022-11-15T08:55:18;101840.22;;;12.41;100.00
26489;BME280;14169;43.684;10.484;2022-11-15T08:57:43;101837.66;;;12.39;100.00
26489;BME280;14169;43.684;10.484;2022-11-15T09:00:09;101837.66;;;12.38;100.00
26489;BME280;14169;43.684;10.484;2022-11-15T09:02:37;101829.88;;;12.36;100.00
26489;BME280;14169;43.684;10.484;2022-11-15T09:05:04;101833.34;;;12.37;100.00
26489;BME280;14169;43.684;10.484;2022-11-15T09:07:29;101840.38;;;12.35;100.00
26489;BME280;14169;43.684;10.484;2022-11-15T09:09:55;101831.66;;;12.34;100.00
26489;BME280;14169;43.684;10.484;2022-11-15T09:12:21;101825.56;;;12.34;100.00
26489;BME280;14169;43.684;10.484;2022-11-15T09:14:46;101819.50;;;12.32;100.00
26489;BME280;14169;43.684;10.484;2022-11-15T09:17:11;101819.50;;;12.33;100.00
26489;BME280;14169;43.684;10.484;2022-11-15T09:19:37;101810.78;;;12.33;100.00
26489;BME280;14169;43.684;10.484;2022-11-15T09:22:06;101816.88;;;12.33;100.00
26489;BME280;14169;43.684;10.484;2022-11-15T09:24:31;101814.19;;;12.36;100.00
26489;BME280;14169;43.684;10.484;2022-11-15T09:26:57;101814.09;;;12.41;100.00
26489;BME280;14169;43.684;10.484;2022-11-15T09:29:22;101809.63;;;12.46;100.00
26489;BME280;14169;43.684;10.484;2022-11-15T09:31:48;101808.66;;;12.50;100.00
26489;BME280;14169;43.684;10.484;2022-11-15T09:34:13;101808.47;;;12.59;100.00
26489;BME280;14169;43.684;10.484;2022-11-15T09:36:38;101810.09;;;12.63;100.00
26489;BME280;14169;43.684;10.484;2022-11-15T09:39:04;101792.63;;;12.65;100.00
26489;BME280;14169;43.684;10.484;2022-11-15T09:47:16;101782.91;;;12.70;100.00
26489;BME280;14169;43.684;10.484;2022-11-15T09:49:45;101781.97;;;12.73;100.00
26489;BME280;14169;43.684;10.484;2022-11-15T09:52:12;101783.72;;;12.72;100.00
26489;BME280;14169;43.684;10.484;2022-11-15T09:54:40;101776.81;;;12.71;100.00
26489;BME280;14169;43.684;10.484;2022-11-15T09:57:13;101770.56;;;12.77;100.00
26489;BME280;14169;43.684;10.484;2022-11-15T10:05:45;101752.78;;;12.91;100.00
26489;BME280;14169;43.684;10.484;2022-11-15T10:11:02;101740.56;;;12.90;100.00
26489;BME280;14169;43.684;10.484;2022-11-15T10:13:30;101724.81;;;12.93;100.00
26489;BME280;14169;43.684;10.484;2022-11-15T10:16:13;101713.38;;;12.97;100.00
26489;BME280;14169;43.684;10.484;2022-11-15T10:19:12;101727.13;;;13.05;100.00
26489;BME280;14169;43.684;10.484;2022-11-15T10:22:04;101718.34;;;13.06;100.00
26489;BME280;14169;43.684;10.484;2022-11-15T10:24:41;101709.69;;;13.05;100.00
26489;BME280;14169;43.684;10.484;2022-11-15T10:27:17;101703.63;;;13.03;100.00
26489;BME280;14169;43.684;10.484;2022-11-15T10:29:48;101695.78;;;13.03;100.00
26489;BME280;14169;43.684;10.484;2022-11-15T10:32:20;101691.31;;;13.07;100.00
26489;BME280;14169;43.684;10.484;2022-11-15T10:34:47;101685.97;;;13.10;100.00
26489;BME280;14169;43.684;10.484;2022-11-15T10:37:13;101675.53;;;13.10;100.00
26489;BME280;14169;43.684;10.484;2022-11-15T10:39:38;101680.69;;;13.11;100.00
26489;BME280;14169;43.684;10.484;2022-11-15T10:44:43;101680.97;;;13.02;100.00
26489;BME280;14169;43.684;10.484;2022-11-15T10:47:30;101673.06;;;13.05;100.00
26489;BME280;14169;43.684;10.484;2022-11-15T10:50:06;101669.47;;;13.08;100.00
26489;BME280;14169;43.684;10.484;2022-11-15T10:52:34;101676.22;;;13.16;100.00
26489;BME280;14169;43.684;10.484;2022-11-15T10:57:49;101678.75;;;13.19;100.00
26489;BME280;14169;43.684;10.484;2022-11-15T11:05:31;101647.50;;;13.15;100.00
26489;BME280;14169;43.684;10.484;2022-11-15T11:08:04;101649.91;;;13.22;100.00
26489;BME280;14169;43.684;10.484;2022-11-15T11:10:29;101661.09;;;13.29;100.00
26489;BME280;14169;43.684;10.484;2022-11-15T11:12:55;101653.19;;;13.30;100.00
26489;BME280;14169;43.684;10.484;2022-11-15T11:15:22;101645.28;;;13.32;100.00
26489;BME280;14169;43.684;10.484;2022-11-15T11:18:18;101638.88;;;13.42;100.00
26489;BME280;14169;43.684;10.484;2022-11-15T11:20:50;101630.13;;;13.43;100.00
26489;BME280;14169;43.684;10.484;2022-11-15T11:24:08;101628.28;;;13.46;100.00
26489;BME280;14169;43.684;10.484;2022-11-15T11:35:30;101608.84;;;13.54;100.00
26489;BME280;14169;43.684;10.484;2022-11-15T11:45:58;101591.38;;;13.54;100.00
26489;BME280;14169;43.684;10.484;2022-11-15T11:50:59;101573.38;;;13.73;100.00
26489;BME280;14169;43.684;10.484;2022-11-15T11:53:31;101579.91;;;13.86;100.00
26489;BME280;14169;43.684;10.484;2022-11-15T11:56:03;101579.72;;;13.92;100.00
26489;BME280;14169;43.684;10.484;2022-11-15T11:58:36;101569.22;;;13.92;100.00
26489;BME280;14169;43.684;10.484;2022-11-15T12:06:37;101555.47;;;13.85;100.00
26489;BME280;14169;43.684;10.484;2022-11-15T12:09:36;101548.78;;;13.77;100.00
26489;BME280;14169;43.684;10.484;2022-11-15T12:17:00;101538.09;;;13.57;100.00
26489;BME280;14169;43.684;10.484;2022-11-15T12:19:26;101527.50;;;13.60;100.00
26489;BME280;14169;43.684;10.484;2022-11-15T12:22:02;101520.38;;;13.65;100.00
26489;BME280;14169;43.684;10.484;2022-11-15T12:24:39;101519.69;;;13.58;100.00
26489;BME280;14169;43.684;10.484;2022-11-15T12:27:19;101512.00;;;13.54;100.00
26489;BME280;14169;43.684;10.484;2022-11-15T12:29:52;101514.09;;;13.42;100.00
26489;BME280;14169;43.684;10.484;2022-11-15T12:32:29;101501.19;;;13.36;100.00
26489;BME280;14169;43.684;10.484;2022-11-15T12:34:58;101500.34;;;13.36;100.00
26489;BME280;14169;43.684;10.484;2022-11-15T12:43:03;101487.81;;;13.45;100.00
26489;BME280;14169;43.684;10.484;2022-11-15T12:45:47;101480.28;;;13.36;100.00
26489;BME280;14169;43.684;10.484;2022-11-15T13:06:49;101466.88;;;13.45;100.00
26489;BME280;14169;43.684;10.484;2022-11-15T13:14:47;101439.22;;;13.65;100.00
26489;BME280;14169;43.684;10.484;2022-11-15T13:20:31;101433.38;;;13.57;100.00
26489;BME280;14169;43.684;10.484;2022-11-15T13:22:41;101453.03;;;13.42;100.00
26489;BME280;14169;43.684;10.484;2022-11-15T13:28:00;101444.09;;;13.21;100.00
26489;BME280;14169;43.684;10.484;2022-11-15T13:30:28;101441.53;;;13.20;100.00
26489;BME280;14169;43.684;10.484;2022-11-15T13:32:55;101442.22;;;13.26;100.00
26489;BME280;14169;43.684;10.484;2022-11-15T13:35:23;101443.88;;;13.29;100.00
26489;BME280;14169;43.684;10.484;2022-11-15T13:37:50;101421.16;;;13.29;100.00
26489;BME280;14169;43.684;10.484;2022-11-15T13:42:53;101418.53;;;13.31;100.00
26489;BME280;14169;43.684;10.484;2022-11-15T13:45:19;101422.03;;;13.30;100.00
26489;BME280;14169;43.684;10.484;2022-11-15T13:47:51;101413.38;;;13.28;100.00
26489;BME280;14169;43.684;10.484;2022-11-15T13:50:18;101407.31;;;13.26;100.00
26489;BME280;14169;43.684;10.484;2022-11-15T13:52:46;101398.66;;;13.24;100.00
26489;BME280;14169;43.684;10.484;2022-11-15T13:55:17;101404.81;;;13.23;100.00
26489;BME280;14169;43.684;10.484;2022-11-15T13:57:53;101398.72;;;13.22;100.00
26489;BME280;14169;43.684;10.484;2022-11-15T14:02:55;101403.22;;;13.19;100.00
26489;BME280;14169;43.684;10.484;2022-11-15T14:05:23;101403.38;;;13.13;100.00
26489;BME280;14169;43.684;10.484;2022-11-15T14:08:20;101390.44;;;13.08;100.00
26489;BME280;14169;43.684;10.484;2022-11-15T14:10:47;101379.09;;;13.08;100.00
26489;BME280;14169;43.684;10.484;2022-11-15T14:13:29;101378.00;;;13.15;100.00
26489;BME280;14169;43.684;10.484;2022-11-15T14:16:21;101388.41;;;13.18;100.00
26489;BME280;14169;43.684;10.484;2022-11-15T14:18:57;101378.53;;;13.26;100.00
26489;BME280;14169;43.684;10.484;2022-11-15T14:21:22;101375.63;;;13.35;100.00
26489;BME280;14169;43.684;10.484;2022-11-15T14:23:48;101383.22;;;13.42;100.00
26489;BME280;14169;43.684;10.484;2022-11-15T14:26:32;101367.53;;;13.42;100.00
26489;BME280;14169;43.684;10.484;2022-11-15T14:29:21;101363.31;;;13.38;100.00
26489;BME280;14169;43.684;10.484;2022-11-15T14:31:47;101368.41;;;13.41;100.00
26489;BME280;14169;43.684;10.484;2022-11-15T14:34:12;101359.56;;;13.45;100.00
26489;BME280;14169;43.684;10.484;2022-11-15T14:36:37;101362.16;;;13.47;100.00
26489;BME280;14169;43.684;10.484;2022-11-15T14:39:03;101360.34;;;13.49;100.00
26489;BME280;14169;43.684;10.484;2022-11-15T14:41:34;101350.66;;;13.51;100.00
26489;BME280;14169;43.684;10.484;2022-11-15T14:44:03;101351.47;;;13.53;100.00
26489;BME280;14169;43.684;10.484;2022-11-15T14:46:28;101354.31;;;13.45;100.00
26489;BME280;14169;43.684;10.484;2022-11-15T14:48:54;101348.47;;;13.39;100.00